Time;durP1;ratioP1;P1;durP2;ratioP2;P2;SDS_P1;SDS_P2;PMS_P1;PMS_P2;Temp;Humidity;BMP_temperature;BMP_pressure;BME280_temperature;BME280_humidity;BME280_pressure;Samples;Min_cycle;Max_cycle;Signal;HPM_P1;HPM_P2
2022/11/16 00:01:16;;;;;;;0.50;0.50;;;;;;;12.28;80.56;99368.06;5089426;28;20035;-86
2022/11/16 00:03:47;;;;;;;0.68;0.68;;;;;;;12.22;81.74;99357.88;5111118;28;20038;-87
2022/11/16 00:06:19;;;;;;;0.60;0.60;;;;;;;12.14;82.83;99354.84;5096804;28;20066;-88
2022/11/16 00:11:44;;;;;;;0.38;0.38;;;;;;;12.23;81.93;99353.50;5127353;28;20035;-87
2022/11/16 00:14:25;;;;;;;0.57;0.57;;;;;;;12.19;82.69;99357.22;5115191;28;20650;-88
2022/11/16 00:16:57;;;;;;;1.27;0.93;;;;;;;12.28;81.30;99357.53;5101413;29;20534;-87
2022/11/16 00:19:29;;;;;;;0.63;0.63;;;;;;;12.16;83.12;99355.59;5112984;28;20035;-87
2022/11/16 00:22:02;;;;;;;1.00;0.70;;;;;;;12.20;81.69;99349.22;5099223;29;20019;-85
2022/11/16 00:24:33;;;;;;;0.60;0.60;;;;;;;12.21;82.00;99355.34;5111415;28;20585;-86
2022/11/16 00:27:12;;;;;;;0.65;0.65;;;;;;;12.22;81.96;99346.53;5083814;29;20023;-87
2022/11/16 00:29:43;;;;;;;0.77;0.77;;;;;;;12.23;81.56;99349.06;5113450;28;20063;-86
2022/11/16 00:32:13;;;;;;;1.67;1.58;;;;;;;12.19;81.27;99342.25;5084904;29;20266;-86
2022/11/16 00:34:44;;;;;;;0.40;0.40;;;;;;;12.11;82.22;99349.72;5083411;28;20122;-86
2022/11/16 00:37:20;;;;;;;0.98;0.70;;;;;;;12.10;82.38;99351.53;5080778;29;20075;-86
2022/11/16 00:39:50;;;;;;;1.02;0.98;;;;;;;12.20;81.39;99348.38;5094961;28;20100;-87
2022/11/16 00:42:21;;;;;;;1.08;0.98;;;;;;;12.20;81.17;99343.97;5096359;29;20047;-86
2022/11/16 00:44:52;;;;;;;0.30;0.30;;;;;;;12.21;80.64;99350.09;5083698;28;20054;-86
2022/11/16 00:47:22;;;;;;;0.40;0.40;;;;;;;12.25;81.40;99352.47;5101512;28;20044;-86
2022/11/16 00:49:53;;;;;;;0.50;0.50;;;;;;;12.26;80.39;99348.03;5105851;28;20056;-87
2022/11/16 00:52:26;;;;;;;0.52;0.52;;;;;;;12.35;80.05;99341.44;5089553;29;20240;-87
2022/11/16 00:54:57;;;;;;;0.90;0.65;;;;;;;12.24;82.01;99340.25;5086464;29;20055;-87
2022/11/16 00:57:27;;;;;;;0.40;0.40;;;;;;;12.27;80.90;99337.44;5105965;29;21473;-86
2022/11/16 00:59:58;;;;;;;0.63;0.63;;;;;;;12.25;80.43;99341.94;5087574;29;20036;-86
2022/11/16 01:02:29;;;;;;;0.80;0.80;;;;;;;12.32;81.85;99344.22;5105055;29;20513;-87
2022/11/16 01:04:59;;;;;;;0.50;0.50;;;;;;;12.25;80.95;99352.47;5089003;29;20503;-87
2022/11/16 01:07:30;;;;;;;0.32;0.32;;;;;;;12.22;80.96;99351.78;5119222;28;20039;-86
2022/11/16 01:10:04;;;;;;;0.50;0.50;;;;;;;12.25;80.46;99352.47;5118203;28;20130;-88
2022/11/16 01:12:34;;;;;;;0.40;0.40;;;;;;;12.25;80.05;99354.22;5106756;29;20486;-87
2022/11/16 01:15:12;;;;;;;4.30;2.03;;;;;;;12.23;80.49;99359.59;5086056;29;20107;-85
2022/11/16 01:17:43;;;;;;;0.65;0.65;;;;;;;12.22;80.65;99359.69;5087733;29;20388;-88
2022/11/16 01:20:18;;;;;;;0.82;0.82;;;;;;;12.26;80.16;99354.16;5093019;28;20032;-87
2022/11/16 01:22:48;;;;;;;0.75;0.75;;;;;;;12.26;79.93;99354.16;5123095;28;20027;-87
2022/11/16 01:25:22;;;;;;;0.40;0.40;;;;;;;12.36;80.52;99359.75;5112750;28;20042;-88
2022/11/16 01:27:53;;;;;;;0.50;0.50;;;;;;;12.26;80.97;99367.31;5094191;29;20042;-87
2022/11/16 01:30:26;;;;;;;1.65;1.55;;;;;;;12.28;81.54;99361.97;5104417;29;20047;-87
2022/11/16 01:32:57;;;;;;;0.47;0.47;;;;;;;12.34;81.64;99358.13;5090875;29;20024;-86
2022/11/16 01:35:30;;;;;;;0.50;0.50;;;;;;;12.32;80.82;99357.38;5112520;28;20061;-87
2022/11/16 01:38:12;;;;;;;2.83;1.35;;;;;;;12.30;80.39;99338.19;5131492;28;20035;-88
2022/11/16 01:40:42;;;;;;;1.08;1.08;;;;;;;12.33;80.61;99330.97;5110896;28;20122;-88
2022/11/16 01:43:16;;;;;;;0.93;0.93;;;;;;;12.29;82.79;99316.31;5110196;29;20118;-87
2022/11/16 01:45:47;;;;;;;2.17;0.75;;;;;;;12.32;82.78;99317.91;5100507;29;20544;-87
2022/11/16 01:48:29;;;;;;;0.20;0.20;;;;;;;12.30;83.09;99327.66;5101409;29;20035;-86
2022/11/16 01:50:59;;;;;;;0.40;0.40;;;;;;;12.28;82.75;99320.72;5093964;29;20043;-86
2022/11/16 01:53:30;;;;;;;0.22;0.22;;;;;;;12.26;82.25;99322.59;5123894;28;20035;-87
2022/11/16 01:56:08;;;;;;;0.20;0.20;;;;;;;12.31;82.01;99321.47;5090168;28;20423;-90
2022/11/16 01:58:43;;;;;;;0.38;0.38;;;;;;;12.36;81.11;99329.94;5102531;28;20079;-87
2022/11/16 02:01:16;;;;;;;0.90;0.85;;;;;;;12.37;81.23;99329.00;5090037;28;20394;-87
2022/11/16 02:03:50;;;;;;;;;;;;;;;12.39;81.22;99337.69;5120222;28;20071;-87
2022/11/16 02:06:23;;;;;;;0.30;0.30;;;;;;;12.39;81.73;99337.69;5098669;28;19929;-85
2022/11/16 02:12:06;;;;;;;0.43;0.43;;;;;;;12.35;80.79;99338.81;5126706;28;20398;-86
2022/11/16 02:15:03;;;;;;;0.32;0.32;;;;;;;12.34;81.38;99334.47;5114292;28;20393;-86
2022/11/16 02:17:46;;;;;;;0.47;0.47;;;;;;;12.37;81.23;99324.63;5105158;29;20357;-85
2022/11/16 02:20:38;;;;;;;0.22;0.22;;;;;;;12.35;80.92;99320.38;5131451;28;20045;-85
2022/11/16 02:23:30;;;;;;;0.20;0.20;;;;;;;12.45;80.74;99313.66;5100315;29;20031;-86
2022/11/16 02:26:27;;;;;;;0.68;0.68;;;;;;;12.36;81.02;99290.50;5126516;28;20046;-85
2022/11/16 02:29:23;;;;;;;0.30;0.30;;;;;;;12.36;80.63;99295.75;5097294;29;20094;-86
2022/11/16 02:31:59;;;;;;;0.28;0.28;;;;;;;12.37;80.31;99292.19;5113314;28;20469;-85
2022/11/16 02:34:47;;;;;;;0.30;0.30;;;;;;;12.36;80.37;99299.25;5101468;28;20038;-86
2022/11/16 02:37:21;;;;;;;0.60;0.60;;;;;;;12.42;80.22;99303.31;5116526;28;20138;-86
2022/11/16 02:39:56;;;;;;;0.30;0.30;;;;;;;12.37;80.09;99295.69;5125510;28;20092;-85
2022/11/16 02:42:32;;;;;;;0.28;0.28;;;;;;;12.37;80.28;99300.94;5082025;29;20035;-86
2022/11/16 02:45:08;;;;;;;0.30;0.30;;;;;;;12.34;80.16;99290.59;5111625;28;20058;-86
2022/11/16 02:47:44;;;;;;;0.38;0.38;;;;;;;12.34;80.12;99285.34;5084057;29;20035;-88
2022/11/16 02:50:18;;;;;;;0.20;0.20;;;;;;;12.34;79.97;99292.38;5083124;29;20079;-88
2022/11/16 02:52:49;;;;;;;0.30;0.30;;;;;;;12.34;79.99;99281.88;5118236;28;20035;-87
2022/11/16 02:55:20;;;;;;;0.30;0.30;;;;;;;12.33;80.14;99280.16;5096437;28;20894;-88
2022/11/16 02:57:57;;;;;;;0.30;0.30;;;;;;;12.34;80.13;99276.59;5129011;28;20042;-88
2022/11/16 03:00:43;;;;;;;0.65;0.65;;;;;;;12.32;80.13;99274.03;5121308;28;20054;-87
2022/11/16 03:03:25;;;;;;;0.30;0.30;;;;;;;12.31;80.37;99282.91;5106959;29;20028;-88
2022/11/16 03:06:16;;;;;;;0.57;0.57;;;;;;;12.39;79.49;99290.34;5106607;28;20105;-88
2022/11/16 03:09:10;;;;;;;0.20;0.20;;;;;;;12.36;79.89;99293.13;5089089;29;20035;-87
2022/11/16 03:11:58;;;;;;;;;;;;;;;12.34;80.11;99290.59;5117150;28;20039;-88
2022/11/16 03:14:49;;;;;;;0.30;0.30;;;;;;;12.34;79.87;99306.38;5119347;28;19922;-87
2022/11/16 03:17:37;;;;;;;0.30;0.30;;;;;;;12.28;80.63;99299.69;5120765;28;20166;-87
2022/11/16 03:20:15;;;;;;;0.65;0.65;;;;;;;12.40;80.32;99305.19;5104077;29;20495;-87
2022/11/16 03:22:53;;;;;;;0.60;0.60;;;;;;;12.35;80.70;99304.59;5104379;28;20125;-87
2022/11/16 03:25:30;;;;;;;0.30;0.30;;;;;;;12.34;80.16;99308.16;5089135;28;20086;-87
2022/11/16 03:28:23;;;;;;;0.20;0.20;;;;;;;12.37;79.85;99305.34;5102437;29;21001;-86
2022/11/16 03:31:03;;;;;;;0.30;0.30;;;;;;;12.36;79.92;99306.28;5115065;28;20788;-87
2022/11/16 03:33:49;;;;;;;0.70;0.70;;;;;;;12.37;80.48;99313.22;5122376;28;20062;-87
2022/11/16 03:36:30;;;;;;;0.30;0.30;;;;;;;12.38;80.56;99320.19;5122605;28;20046;-87
2022/11/16 03:39:26;;;;;;;0.93;0.73;;;;;;;12.38;81.52;99330.72;5087651;29;20969;-87
2022/11/16 03:41:59;;;;;;;0.30;0.30;;;;;;;12.32;82.13;99337.16;5082562;29;20073;-86
2022/11/16 03:44:30;;;;;;;0.73;0.73;;;;;;;12.28;81.87;99336.50;5096670;28;20087;-87
2022/11/16 03:47:03;;;;;;;0.60;0.60;;;;;;;12.26;81.52;99338.38;5099467;29;20111;-87
2022/11/16 03:49:34;;;;;;;0.30;0.30;;;;;;;12.22;81.87;99339.47;5118566;28;20035;-87
2022/11/16 03:52:11;;;;;;;0.30;0.30;;;;;;;12.22;82.45;99336.84;5116781;28;20482;-88
2022/11/16 03:54:42;;;;;;;0.50;0.50;;;;;;;12.31;82.01;99329.38;5118331;28;20441;-88
2022/11/16 03:57:17;;;;;;;0.30;0.30;;;;;;;12.25;81.25;99341.94;5119667;28;20042;-87
2022/11/16 03:59:48;;;;;;;0.20;0.20;;;;;;;12.31;81.13;99351.28;5079931;28;20672;-87
2022/11/16 04:02:25;;;;;;;0.30;0.30;;;;;;;12.32;80.85;99346.84;5112069;28;20035;-87
2022/11/16 04:26:17;;;;;;;0.30;0.30;;;;;;;12.23;81.43;99354.31;5101905;29;20039;-87
2022/11/16 04:28:47;;;;;;;1.17;0.55;;;;;;;12.20;81.22;99349.22;5115544;28;20099;-87
2022/11/16 04:39:50;;;;;;;0.30;0.30;;;;;;;12.19;80.64;99352.78;5133846;28;20051;-86
2022/11/16 04:42:21;;;;;;;0.30;0.30;;;;;;;12.15;80.76;99359.16;5089913;29;20067;-85
2022/11/16 04:47:41;;;;;;;0.20;0.20;;;;;;;12.13;81.15;99355.75;5122242;28;20051;-86
2022/11/16 04:50:15;;;;;;;0.55;0.55;;;;;;;12.15;80.52;99366.22;5126880;28;20117;-86
2022/11/16 04:52:46;;;;;;;1.15;1.05;;;;;;;12.17;81.13;99370.44;5132119;28;20043;-86
2022/11/16 04:55:17;;;;;;;0.28;0.28;;;;;;;12.11;81.05;99365.50;5113777;28;20046;-86
2022/11/16 04:57:51;;;;;;;0.22;0.22;;;;;;;12.12;81.25;99364.56;5125016;28;20031;-86
2022/11/16 05:00:24;;;;;;;0.30;0.30;;;;;;;12.16;81.55;99367.88;5102337;28;20510;-87
2022/11/16 05:02:54;;;;;;;;;;;;;;;12.09;81.97;99367.41;5093946;29;20028;-86
2022/11/16 05:05:31;;;;;;;0.52;0.52;;;;;;;12.07;81.10;99375.34;5129140;28;19925;-85
2022/11/16 05:08:02;;;;;;;0.28;0.28;;;;;;;12.06;82.32;99378.06;5107470;29;20050;-86
2022/11/16 05:10:34;;;;;;;0.40;0.40;;;;;;;12.04;81.96;99383.41;5119459;28;20128;-86
2022/11/16 05:13:09;;;;;;;1.35;0.85;;;;;;;12.05;81.62;99381.63;5090208;29;20651;-85
2022/11/16 05:15:43;;;;;;;0.30;0.30;;;;;;;12.01;82.50;99374.84;5075571;28;20046;-88
2022/11/16 05:18:14;;;;;;;6.90;0.73;;;;;;;12.07;82.05;99377.13;5125238;28;20027;-87
2022/11/16 05:20:59;;;;;;;0.20;0.20;;;;;;;12.01;82.42;99373.06;5101952;29;20066;-87
2022/11/16 05:26:20;;;;;;;0.35;0.35;;;;;;;11.96;81.98;99378.53;5104398;28;20678;-87
2022/11/16 05:28:50;;;;;;;0.30;0.30;;;;;;;12.00;82.48;99374.00;5093957;29;20024;-87
2022/11/16 05:31:24;;;;;;;1.40;1.30;;;;;;;12.01;82.12;99380.09;5137528;28;20051;-86
2022/11/16 05:33:54;;;;;;;0.30;0.30;;;;;;;12.03;81.85;99379.09;5113324;29;20540;-87
2022/11/16 05:36:27;;;;;;;0.65;0.65;;;;;;;11.88;82.59;99380.72;5140841;28;20055;-86
2022/11/16 05:39:00;;;;;;;0.30;0.30;;;;;;;11.81;82.61;99384.63;5120164;29;20046;-86
2022/11/16 05:41:34;;;;;;;5.43;0.68;;;;;;;11.78;82.60;99384.78;5114329;29;20048;-85
2022/11/16 05:44:04;;;;;;;0.65;0.63;;;;;;;11.67;83.03;99380.09;5097422;29;20028;-88
2022/11/16 05:46:38;;;;;;;0.40;0.40;;;;;;;11.81;81.61;99384.63;5121352;28;20070;-88
2022/11/16 05:49:12;;;;;;;0.30;0.30;;;;;;;11.81;82.00;99388.13;5107134;29;20091;-87
2022/11/16 05:51:46;;;;;;;0.30;0.30;;;;;;;11.75;81.68;99384.97;5088856;29;20046;-87
2022/11/16 05:54:24;;;;;;;0.63;0.63;;;;;;;11.71;81.67;99396.53;5091918;29;20032;-87
2022/11/16 05:56:55;;;;;;;3.75;1.77;;;;;;;11.59;81.30;99396.28;5124435;28;20106;-87
2022/11/16 05:59:41;;;;;;;;;;;;;;;;;;;;;
2022/11/16 06:02:11;;;;;;;0.80;0.80;;;;;;;11.59;80.41;99408.56;5133407;28;20797;-86
2022/11/16 06:04:42;;;;;;;0.30;0.30;;;;;;;11.49;80.42;99410.81;5110041;28;20054;-87
2022/11/16 06:07:13;;;;;;;0.28;0.28;;;;;;;11.55;79.76;99409.66;5143629;28;20119;-85
2022/11/16 06:09:43;;;;;;;0.30;0.30;;;;;;;11.40;79.89;99417.41;5105577;28;20087;-87
2022/11/16 06:12:16;;;;;;;0.30;0.30;;;;;;;11.41;79.90;99424.34;5109240;29;20397;-88
2022/11/16 06:14:47;;;;;;;0.40;0.40;;;;;;;11.39;79.98;99420.09;5111333;28;20039;-86
2022/11/16 06:17:17;;;;;;;5.10;1.58;;;;;;;11.44;80.05;99426.81;5131257;28;20027;-88
2022/11/16 06:19:51;;;;;;;0.22;0.22;;;;;;;11.43;80.04;99429.53;5111029;28;20126;-87
2022/11/16 06:22:25;;;;;;;0.30;0.30;;;;;;;11.49;79.90;99434.47;5145284;28;20529;-86
2022/11/16 06:24:57;;;;;;;;;;;;;;;11.43;79.11;99426.91;5125791;28;20036;-87
2022/11/16 06:27:28;;;;;;;0.30;0.30;;;;;;;11.44;79.21;99425.97;5128767;28;19942;-89
2022/11/16 06:30:04;;;;;;;0.20;0.20;;;;;;;11.56;78.64;99437.63;5109922;28;20406;-87
2022/11/16 06:32:44;;;;;;;0.30;0.30;;;;;;;11.54;78.07;99440.31;5116821;28;20127;-86
2022/11/16 06:35:15;;;;;;;1.02;1.02;;;;;;;11.45;78.51;99438.16;5102640;29;20151;-86
2022/11/16 06:37:46;;;;;;;0.63;0.57;;;;;;;11.36;78.24;99457.03;5140423;28;20035;-86
2022/11/16 06:40:17;;;;;;;0.30;0.30;;;;;;;11.41;78.15;99455.00;5121389;28;20097;-86
2022/11/16 06:42:49;;;;;;;0.50;0.50;;;;;;;11.35;78.25;99461.41;5106022;28;20135;-86
2022/11/16 06:45:33;;;;;;;0.80;0.80;;;;;;;11.41;78.24;99455.84;5104043;28;20047;-87
2022/11/16 06:48:06;;;;;;;0.20;0.20;;;;;;;11.33;78.33;99464.13;5108514;29;20368;-82
2022/11/16 06:50:36;;;;;;;0.20;0.20;;;;;;;11.39;78.12;99467.38;5110636;28;20063;-85
2022/11/16 06:53:07;;;;;;;1.30;1.20;;;;;;;11.38;77.92;99468.28;5107467;28;20090;-85
2022/11/16 06:55:40;;;;;;;0.30;0.30;;;;;;;11.35;77.96;99466.66;5115817;28;20048;-84
2022/11/16 06:58:11;;;;;;;1.33;0.40;;;;;;;11.26;78.02;99464.50;5081262;29;20031;-88
2022/11/16 07:00:44;;;;;;;3.63;0.85;;;;;;;11.29;78.01;99464.38;5112974;28;20048;-86
2022/11/16 07:03:15;;;;;;;0.40;0.40;;;;;;;11.32;77.52;99472.09;5136410;28;20027;-86
2022/11/16 07:05:52;;;;;;;0.40;0.40;;;;;;;11.16;77.80;99472.00;5129163;28;20069;-87
2022/11/16 07:08:23;;;;;;;0.82;0.50;;;;;;;11.08;77.52;99474.16;5135830;28;20126;-87
2022/11/16 07:10:53;;;;;;;0.77;0.77;;;;;;;11.00;76.39;99470.13;5109011;28;20090;-85
2022/11/16 07:13:24;;;;;;;1.02;0.60;;;;;;;10.86;77.31;99475.22;5124234;28;20490;-84
2022/11/16 07:16:01;;;;;;;0.82;0.82;;;;;;;10.97;77.47;99472.06;5125433;28;20051;-87
2022/11/16 07:18:33;;;;;;;0.57;0.57;;;;;;;10.86;76.82;99477.84;5122876;28;20126;-82
2022/11/16 07:21:11;;;;;;;0.40;0.40;;;;;;;10.86;77.24;99481.28;5119193;28;20027;-82
2022/11/16 07:23:42;;;;;;;0.30;0.30;;;;;;;10.92;77.42;99484.53;5120803;28;20032;-85
2022/11/16 07:26:16;;;;;;;0.30;0.30;;;;;;;10.91;77.28;99488.13;5123581;28;20449;-83
2022/11/16 07:28:46;;;;;;;1.10;0.82;;;;;;;10.88;77.32;99498.75;5124487;28;20050;-84
2022/11/16 07:31:18;;;;;;;0.63;0.63;;;;;;;10.95;77.14;99497.53;5083817;28;20118;-85
2022/11/16 07:33:48;;;;;;;0.70;0.70;;;;;;;10.85;77.30;99505.84;5141028;28;20046;-85
2022/11/16 07:36:20;;;;;;;0.93;0.88;;;;;;;10.86;77.31;99506.69;5121274;28;20039;-84
2022/11/16 07:38:50;;;;;;;0.82;0.82;;;;;;;10.79;77.26;99505.25;5108304;29;20066;-87
2022/11/16 07:41:24;;;;;;;0.30;0.30;;;;;;;10.80;77.26;99506.97;5117222;28;20394;-86
2022/11/16 07:43:55;;;;;;;0.30;0.30;;;;;;;10.78;77.68;99508.84;5123556;28;20031;-85
2022/11/16 07:46:26;;;;;;;1.13;1.02;;;;;;;10.84;77.11;99511.16;5119239;28;20051;-84
2022/11/16 07:48:57;;;;;;;0.73;0.73;;;;;;;10.84;77.33;99516.41;5099608;29;20046;-86
2022/11/16 07:51:27;;;;;;;1.45;0.73;;;;;;;10.80;77.07;99517.47;5133701;28;20036;-85
2022/11/16 07:53:58;;;;;;;0.30;0.30;;;;;;;10.83;77.30;99514.69;5107256;29;20174;-87
2022/11/16 07:56:28;;;;;;;0.40;0.40;;;;;;;10.94;77.26;99522.06;5097603;28;20043;-87
2022/11/16 07:59:00;;;;;;;0.60;0.60;;;;;;;10.88;76.68;99528.44;5121707;28;20031;-85
2022/11/16 08:01:31;;;;;;;0.55;0.55;;;;;;;10.83;76.97;99533.91;5121484;28;20054;-85
2022/11/16 08:04:02;;;;;;;0.60;0.60;;;;;;;10.90;77.18;99534.47;5106255;29;20064;-85
2022/11/16 08:06:32;;;;;;;0.68;0.68;;;;;;;10.88;76.96;99544.19;5119356;28;20043;-86
2022/11/16 08:09:03;;;;;;;8.60;2.47;;;;;;;10.94;76.37;99541.28;5087414;29;20039;-88
2022/11/16 08:11:34;;;;;;;3.95;1.17;;;;;;;10.84;76.43;99538.25;5119185;28;20052;-85
2022/11/16 08:14:10;;;;;;;1.30;1.23;;;;;;;10.81;76.39;99534.91;5105223;29;20048;-85
2022/11/16 08:16:41;;;;;;;0.20;0.20;;;;;;;10.68;76.17;99545.13;5106585;29;20040;-87
2022/11/16 08:19:12;;;;;;;0.30;0.30;;;;;;;10.59;75.61;99538.53;5090780;29;20043;-87
2022/11/16 08:21:44;;;;;;;0.45;0.45;;;;;;;10.68;75.80;99538.13;5101227;29;20047;-85
2022/11/16 08:24:17;;;;;;;0.30;0.30;;;;;;;10.62;75.98;99546.25;5086302;29;20099;-86
2022/11/16 08:26:48;;;;;;;0.30;0.30;;;;;;;10.58;75.98;99549.13;5086187;29;20074;-86
2022/11/16 08:29:19;;;;;;;0.30;0.30;;;;;;;10.68;76.26;99551.25;5104224;29;20039;-85
2022/11/16 08:32:10;;;;;;;1.25;0.57;;;;;;;10.75;76.12;99553.56;5116936;29;20430;-86
2022/11/16 08:34:40;;;;;;;0.30;0.30;;;;;;;10.63;76.39;99563.69;5121585;28;20039;-85
2022/11/16 08:37:11;;;;;;;0.30;0.30;;;;;;;10.69;76.30;99563.44;5124528;28;20031;-85
2022/11/16 08:39:41;;;;;;;0.55;0.55;;;;;;;10.75;76.15;99567.53;5105488;28;20035;-83
2022/11/16 08:42:12;;;;;;;6.70;1.10;;;;;;;10.70;76.43;99570.34;5103365;29;20031;-83
2022/11/16 08:44:45;;;;;;;0.40;0.40;;;;;;;10.79;76.48;99568.22;5088615;28;20035;-85
2022/11/16 08:47:16;;;;;;;;;;;;;;;10.68;77.46;99572.22;5140517;28;20031;-85
2022/11/16 08:49:46;;;;;;;0.60;0.60;;;;;;;10.79;76.89;99573.47;5121030;28;20592;-86
2022/11/16 08:52:17;;;;;;;6.75;1.50;;;;;;;10.84;76.89;99582.84;5119737;29;20035;-85
2022/11/16 08:54:48;;;;;;;0.30;0.30;;;;;;;10.92;76.60;99579.00;5104407;29;20031;-84
2022/11/16 08:57:18;;;;;;;0.40;0.40;;;;;;;10.88;76.34;99566.97;5122740;28;20036;-84
2022/11/16 08:59:49;;;;;;;0.20;0.20;;;;;;;10.95;76.40;99571.84;5087400;29;20032;-85
2022/11/16 09:02:24;;;;;;;0.50;0.50;;;;;;;10.92;76.04;99574.63;5087122;29;20035;-86
2022/11/16 09:04:54;;;;;;;0.40;0.40;;;;;;;10.94;76.18;99574.53;5075550;29;20042;-86
2022/11/16 09:07:25;;;;;;;0.38;0.38;;;;;;;11.01;75.89;99579.44;5121279;28;20024;-85
2022/11/16 09:09:55;;;;;;;0.52;0.52;;;;;;;10.99;75.91;99586.53;5085537;29;20495;-85
2022/11/16 09:12:26;;;;;;;0.70;0.70;;;;;;;10.94;75.50;99580.66;5103938;29;20028;-84
2022/11/16 09:14:57;;;;;;;0.20;0.20;;;;;;;10.89;75.42;99587.88;5105539;29;20075;-85
2022/11/16 09:17:27;;;;;;;0.60;0.60;;;;;;;10.96;75.34;99583.22;5092967;29;20027;-84
2022/11/16 09:19:58;;;;;;;6.03;2.08;;;;;;;10.96;74.45;99586.66;5109436;29;20036;-86
2022/11/16 09:22:29;;;;;;;0.20;0.20;;;;;;;10.92;74.66;99593.00;5111821;29;20040;-86
2022/11/16 09:24:59;;;;;;;0.55;0.55;;;;;;;11.00;73.98;99592.63;5115719;28;20558;-84
2022/11/16 09:27:30;;;;;;;0.30;0.30;;;;;;;11.00;74.81;99595.25;5127193;28;20180;-85
2022/11/16 09:30:01;;;;;;;0.20;0.20;;;;;;;11.03;74.47;99592.50;5105635;29;20095;-84
2022/11/16 09:32:31;;;;;;;0.50;0.40;;;;;;;11.08;75.33;99597.53;5108208;29;20047;-86
2022/11/16 09:35:02;;;;;;;0.30;0.30;;;;;;;11.05;74.17;99600.28;5111872;29;20046;-85
2022/11/16 09:37:37;;;;;;;0.30;0.30;;;;;;;11.00;74.88;99600.50;5130255;28;20035;-84
2022/11/16 09:40:11;;;;;;;0.40;0.40;;;;;;;11.06;74.60;99586.25;5146338;28;20581;-85
2022/11/16 09:43:07;;;;;;;0.63;0.63;;;;;;;10.92;73.52;99585.13;5111192;28;20512;-84
2022/11/16 09:45:51;;;;;;;0.30;0.30;;;;;;;11.13;73.97;99598.16;5095497;29;20111;-85
2022/11/16 09:48:23;;;;;;;0.68;0.68;;;;;;;11.07;73.84;99591.44;5111156;29;20032;-84
2022/11/16 09:51:08;;;;;;;;;;;;;;;;;;;;;
2022/11/16 09:54:01;;;;;;;0.50;0.50;;;;;;;11.08;73.24;99600.16;5127135;28;20039;-84
2022/11/16 09:56:36;;;;;;;0.65;0.63;;;;;;;10.95;72.35;99605.97;5129672;28;20398;-87
2022/11/16 09:59:07;;;;;;;0.77;0.30;;;;;;;10.98;72.38;99610.25;5115978;29;20027;-83
2022/11/16 10:01:45;;;;;;;0.30;0.30;;;;;;;11.03;73.29;99603.81;5097687;29;20098;-84
2022/11/16 10:04:35;;;;;;;0.20;0.20;;;;;;;11.07;73.61;99607.19;5147398;28;20446;-84
2022/11/16 10:07:13;;;;;;;0.60;0.60;;;;;;;11.06;72.87;99592.34;5120211;28;20039;-87
2022/11/16 10:09:45;;;;;;;0.30;0.30;;;;;;;11.08;73.11;99594.91;5127262;28;20066;-87
2022/11/16 10:12:23;;;;;;;0.20;0.20;;;;;;;11.11;73.83;99600.03;5110922;29;20027;-84
2022/11/16 10:15:10;;;;;;;0.30;0.30;;;;;;;11.13;73.86;99603.41;5125768;28;20042;-84
2022/11/16 10:18:18;;;;;;;0.20;0.20;;;;;;;11.20;73.53;99598.72;5079187;29;20040;-86
2022/11/16 10:21:06;;;;;;;0.90;0.90;;;;;;;11.23;73.00;99599.41;5108644;28;20058;-84
2022/11/16 10:24:13;;;;;;;0.40;0.40;;;;;;;11.21;73.44;99603.88;5147077;28;20046;-84
2022/11/16 10:27:18;;;;;;;0.30;0.30;;;;;;;11.23;73.73;99602.03;5095898;28;20043;-83
2022/11/16 10:29:57;;;;;;;0.30;0.30;;;;;;;11.21;73.97;99601.25;5110997;28;20532;-87
2022/11/16 10:32:38;;;;;;;0.47;0.47;;;;;;;11.25;73.72;99602.84;5108197;29;20038;-84
2022/11/16 10:35:11;;;;;;;;;;;;;;;11.31;74.13;99597.28;5136332;28;20390;-84
2022/11/16 10:37:50;;;;;;;0.20;0.20;;;;;;;11.36;74.00;99594.44;5106007;29;19915;-84
2022/11/16 10:40:24;;;;;;;0.30;0.30;;;;;;;11.38;73.72;99586.47;5115888;28;20115;-84
2022/11/16 10:43:06;;;;;;;0.40;0.40;;;;;;;11.46;74.14;99585.19;5107254;29;20038;-84
2022/11/16 10:45:42;;;;;;;0.52;0.52;;;;;;;11.40;74.05;99580.25;5133014;28;20038;-84
2022/11/16 10:48:50;;;;;;;0.22;0.22;;;;;;;11.44;73.60;99573.06;5109830;29;20046;-84
2022/11/16 10:51:20;;;;;;;0.30;0.30;;;;;;;11.45;73.69;99580.00;5120401;28;20584;-84
2022/11/16 10:53:52;;;;;;;0.30;0.30;;;;;;;11.56;72.50;99582.94;5093580;29;20042;-83
2022/11/16 10:56:36;;;;;;;1.45;0.50;;;;;;;11.50;73.42;99584.09;5108343;28;20372;-83
2022/11/16 10:59:07;;;;;;;0.47;0.47;;;;;;;11.49;72.92;99578.94;5089772;29;20031;-84
2022/11/16 11:01:51;;;;;;;0.47;0.47;;;;;;;11.54;73.75;99576.91;5137967;28;20043;-87
2022/11/16 11:04:30;;;;;;;0.45;0.45;;;;;;;11.64;72.69;99572.91;5138713;28;20027;-85
2022/11/16 11:07:21;;;;;;;7.75;1.52;;;;;;;11.64;73.19;99567.66;5126910;29;20086;-84
2022/11/16 11:10:29;;;;;;;2.20;1.58;;;;;;;11.59;73.35;99559.16;5128267;28;20031;-85
2022/11/16 11:13:12;;;;;;;0.60;0.60;;;;;;;11.70;73.48;99549.88;5138092;28;20393;-83
2022/11/16 11:15:43;;;;;;;0.47;0.47;;;;;;;11.65;73.19;99550.97;5125144;28;20038;-87
2022/11/16 11:18:14;;;;;;;0.30;0.30;;;;;;;11.73;73.59;99557.59;5144877;28;20035;-85
2022/11/16 11:20:51;;;;;;;0.22;0.22;;;;;;;11.80;73.50;99553.75;5111740;28;20413;-88
2022/11/16 11:23:24;;;;;;;0.30;0.30;;;;;;;11.74;73.39;99547.00;5129114;28;20023;-84
2022/11/16 11:26:00;;;;;;;0.32;0.32;;;;;;;11.82;73.60;99539.59;5141371;28;20119;-84
2022/11/16 11:28:33;;;;;;;0.40;0.40;;;;;;;11.87;73.28;99536.72;5125154;28;20063;-87
2022/11/16 11:31:24;;;;;;;;;;;;;;;11.97;72.78;99531.91;5097371;28;20038;-87
2022/11/16 11:34:18;;;;;;;0.30;0.30;;;;;;;12.05;72.89;99524.47;5110458;29;20018;-85
2022/11/16 11:36:56;;;;;;;0.30;0.30;;;;;;;12.11;72.95;99523.25;5117356;28;20067;-85
2022/11/16 11:39:37;;;;;;;0.40;0.40;;;;;;;12.20;72.54;99522.78;5120832;28;20031;-84
2022/11/16 11:42:16;;;;;;;1.33;1.13;;;;;;;12.29;72.36;99518.81;5121234;28;20043;-85
2022/11/16 11:44:56;;;;;;;0.30;0.30;;;;;;;12.24;71.47;99515.56;5119888;28;20090;-85
2022/11/16 11:48:22;;;;;;;0.45;0.45;;;;;;;12.28;72.26;99503.97;5109534;29;20565;-85
2022/11/16 11:51:18;;;;;;;0.20;0.20;;;;;;;12.42;71.58;99517.22;5076770;29;20101;-84
2022/11/16 11:54:04;;;;;;;1.93;0.70;;;;;;;12.38;72.27;99506.94;5105284;28;20171;-86
2022/11/16 11:56:34;;;;;;;0.20;0.20;;;;;;;12.40;71.55;99500.66;5085445;28;20648;-85
2022/11/16 11:59:05;;;;;;;0.30;0.30;;;;;;;12.43;72.42;99497.88;5121567;29;20065;-85
2022/11/16 12:02:06;;;;;;;1.35;1.17;;;;;;;12.46;71.97;99496.84;5084065;29;20043;-84
2022/11/16 12:05:16;;;;;;;0.30;0.30;;;;;;;12.52;71.90;99485.16;5105598;29;20063;-87
2022/11/16 12:08:28;;;;;;;0.35;0.35;;;;;;;12.58;71.94;99477.78;5120536;28;21586;-85
2022/11/16 12:11:32;;;;;;;0.22;0.22;;;;;;;12.58;70.87;99479.53;5116054;28;20047;-85
2022/11/16 12:14:23;;;;;;;1.53;1.27;;;;;;;12.69;72.05;99479.81;5143970;28;20028;-87
2022/11/16 12:17:11;;;;;;;0.47;0.47;;;;;;;12.72;72.07;99486.69;5105391;29;20294;-83
2022/11/16 12:20:09;;;;;;;3.10;0.90;;;;;;;12.73;70.32;99483.13;5126417;28;20684;-85
2022/11/16 12:23:09;;;;;;;0.30;0.30;;;;;;;12.72;71.72;99487.53;5123577;28;20035;-83
2022/11/16 12:26:05;;;;;;;0.50;0.50;;;;;;;12.74;71.65;99485.66;5114715;28;20153;-83
2022/11/16 12:29:00;;;;;;;0.20;0.20;;;;;;;12.89;71.44;99489.22;5125518;28;20039;-85
2022/11/16 12:31:53;;;;;;;0.20;0.20;;;;;;;12.82;70.48;99482.59;5121355;28;20094;-84
2022/11/16 12:34:56;;;;;;;0.20;0.20;;;;;;;12.83;70.66;99475.53;5142555;28;20036;-86
2022/11/16 12:37:57;;;;;;;0.20;0.20;;;;;;;12.90;71.27;99469.00;5086800;29;20303;-84
2022/11/16 12:40:33;;;;;;;0.70;0.70;;;;;;;12.94;71.19;99465.25;5123562;28;20071;-83
2022/11/16 12:43:15;;;;;;;0.80;0.80;;;;;;;12.94;70.84;99459.13;5125127;28;20035;-84
2022/11/16 12:45:52;;;;;;;0.40;0.40;;;;;;;12.99;70.32;99463.22;5126377;28;20407;-85
2022/11/16 12:48:40;;;;;;;0.52;0.52;;;;;;;12.97;70.60;99451.94;5132771;28;20031;-82
2022/11/16 12:51:20;;;;;;;0.20;0.20;;;;;;;12.97;71.30;99448.44;5147668;28;20036;-85
2022/11/16 12:54:08;;;;;;;0.20;0.20;;;;;;;12.97;71.78;99453.72;5138078;28;20054;-86
2022/11/16 12:56:58;;;;;;;0.52;0.52;;;;;;;12.95;71.30;99448.53;5113297;28;20065;-83
2022/11/16 12:59:42;;;;;;;0.30;0.30;;;;;;;12.98;71.77;99444.88;5139215;28;20050;-85
2022/11/16 13:02:16;;;;;;;0.40;0.32;;;;;;;12.99;71.44;99446.56;5106403;29;20119;-86
2022/11/16 13:05:16;;;;;;;0.30;0.30;;;;;;;13.01;71.32;99444.72;5129261;28;20046;-84